Time;durP1;ratioP1;P1;durP2;ratioP2;P2;SDS_P1;SDS_P2;PMS_P1;PMS_P2;Temp;Humidity;BMP_temperature;BMP_pressure;BME280_temperature;BME280_humidity;BME280_pressure;Samples;Min_cycle;Max_cycle;Signal;HPM_P1;HPM_P2
2021/06/04 00:00:42;;;;;;;49.33;39.20;;;18.60;93.60;;;;;;5070423;28;20051;-67
2021/06/04 00:03:17;;;;;;;51.28;40.05;;;18.60;93.60;;;;;;5092266;28;20028;-67
2021/06/04 00:05:45;;;;;;;52.20;41.08;;;18.60;93.60;;;;;;5085091;28;20017;-67
2021/06/04 00:08:12;;;;;;;50.42;40.88;;;18.60;93.60;;;;;;5090393;28;20062;-67
2021/06/04 00:10:44;;;;;;;47.55;38.67;;;18.60;93.60;;;;;;5087511;28;20555;-67
2021/06/04 00:13:17;;;;;;;48.80;39.43;;;18.60;93.60;;;;;;5090161;28;20379;-67
2021/06/04 00:15:44;;;;;;;47.65;37.30;;;18.60;93.50;;;;;;5084796;28;20028;-67
2021/06/04 00:18:10;;;;;;;49.70;39.47;;;18.60;93.50;;;;;;5090623;28;20462;-67
2021/06/04 00:20:36;;;;;;;53.00;42.03;;;18.50;93.50;;;;;;5083212;28;20031;-67
2021/06/04 00:23:02;;;;;;;53.80;42.15;;;18.50;93.60;;;;;;5090905;28;20405;-67
2021/06/04 00:25:28;;;;;;;51.13;41.72;;;18.50;93.50;;;;;;5086513;28;20158;-67
2021/06/04 00:27:53;;;;;;;51.22;40.30;;;18.60;93.60;;;;;;5092902;28;20070;-67
2021/06/04 00:30:20;;;;;;;54.85;42.10;;;18.50;93.50;;;;;;5071352;28;20032;-67
2021/06/04 00:32:45;;;;;;;56.67;43.97;;;18.40;93.50;;;;;;5086504;28;20393;-67
2021/06/04 00:35:12;;;;;;;53.47;43.58;;;18.40;93.60;;;;;;5089387;28;20028;-67
2021/06/04 00:37:37;;;;;;;51.00;41.22;;;18.40;93.60;;;;;;5089315;28;20129;-67
2021/06/04 00:40:11;;;;;;;51.00;40.80;;;18.40;93.60;;;;;;5084550;28;20486;-67
2021/06/04 00:42:37;;;;;;;53.05;40.15;;;18.40;93.60;;;;;;5090018;28;20491;-67
2021/06/04 00:45:07;;;;;;;48.90;37.72;;;18.40;93.60;;;;;;5087533;28;20165;-67
2021/06/04 00:47:33;;;;;;;47.13;35.92;;;18.40;93.60;;;;;;5088869;28;20024;-67
2021/06/04 00:49:59;;;;;;;43.70;35.53;;;18.40;93.50;;;;;;5090268;28;20020;-67
2021/06/04 00:52:32;;;;;;;52.42;39.75;;;18.30;93.50;;;;;;5076268;28;20051;-67
2021/06/04 00:54:59;;;;;;;48.55;37.47;;;18.30;93.50;;;;;;5065125;28;20035;-67
2021/06/04 00:57:26;;;;;;;44.10;34.90;;;18.30;93.50;;;;;;5072066;28;20498;-67
2021/06/04 01:00:00;;;;;;;48.97;37.33;;;18.30;93.60;;;;;;5084213;28;20043;-67
2021/06/04 01:02:26;;;;;;;46.05;36.85;;;18.30;93.70;;;;;;5089603;28;20027;-67
2021/06/04 01:04:52;;;;;;;48.58;38.10;;;18.20;93.70;;;;;;5082794;28;20425;-67
2021/06/04 01:07:20;;;;;;;45.83;35.65;;;18.20;93.80;;;;;;5066962;28;20027;-67
2021/06/04 01:10:15;;;;;;;43.75;34.20;;;18.20;93.80;;;;;;5086534;28;20474;-68
2021/06/04 01:12:52;;;;;;;40.20;34.45;;;18.20;93.70;;;;;;5088039;28;20355;-67
2021/06/04 01:15:42;;;;;;;44.10;36.03;;;18.00;93.70;;;;;;5079548;28;20500;-67
2021/06/04 01:18:33;;;;;;;49.78;38.78;;;18.00;94.00;;;;;;5087419;28;20032;-67
2021/06/04 01:21:03;;;;;;;53.15;37.92;;;17.90;93.90;;;;;;5086651;28;20051;-67
2021/06/04 01:24:06;;;;;;;51.40;38.13;;;17.80;93.90;;;;;;5089132;28;20024;-67
2021/06/04 01:26:41;;;;;;;51.40;39.08;;;17.80;94.00;;;;;;5087858;28;20421;-67
2021/06/04 01:29:28;;;;;;;48.47;37.78;;;17.70;94.10;;;;;;5090103;28;20477;-67
2021/06/04 01:32:10;;;;;;;50.55;38.90;;;17.70;94.10;;;;;;5090095;28;20024;-67
2021/06/04 01:34:40;;;;;;;54.20;39.67;;;17.60;94.20;;;;;;5090525;28;20052;-67
2021/06/04 01:37:20;;;;;;;48.75;37.42;;;17.60;94.20;;;;;;5085404;28;20089;-67
2021/06/04 01:39:49;;;;;;;54.03;40.00;;;17.50;94.30;;;;;;5090664;28;20032;-67
2021/06/04 01:42:20;;;;;;;53.63;40.45;;;17.50;94.40;;;;;;5063530;28;20390;-67
2021/06/04 01:44:52;;;;;;;50.13;37.58;;;17.40;94.50;;;;;;5080984;28;20021;-67
2021/06/04 01:47:22;;;;;;;55.33;39.50;;;17.30;94.50;;;;;;5090854;28;20111;-67
2021/06/04 01:49:50;;;;;;;54.45;39.22;;;17.30;94.60;;;;;;5088884;28;20032;-67
2021/06/04 01:52:22;;;;;;;51.03;39.50;;;17.30;94.70;;;;;;5089810;28;20129;-67
2021/06/04 01:54:52;;;;;;;54.58;39.35;;;17.30;94.80;;;;;;5091190;28;20028;-67
2021/06/04 01:57:31;;;;;;;49.88;36.33;;;17.30;94.80;;;;;;5084219;28;20028;-67
2021/06/04 01:59:59;;;;;;;51.92;37.47;;;17.20;94.70;;;;;;5093180;28;20048;-67
2021/06/04 02:02:29;;;;;;;50.42;36.90;;;17.20;94.80;;;;;;5093681;28;20099;-67
2021/06/04 02:04:56;;;;;;;50.85;37.03;;;17.10;94.80;;;;;;5090825;28;20482;-67
2021/06/04 02:07:26;;;;;;;45.33;33.83;;;17.10;94.90;;;;;;5090598;28;20028;-67
2021/06/04 02:09:52;;;;;;;45.95;34.28;;;17.00;94.90;;;;;;5092722;28;20028;-67
2021/06/04 02:12:18;;;;;;;49.63;36.95;;;17.00;94.90;;;;;;5088324;28;20824;-67
2021/06/04 02:14:57;;;;;;;48.67;35.08;;;17.00;95.00;;;;;;5093413;28;20470;-67
2021/06/04 02:17:40;;;;;;;46.35;34.20;;;17.00;95.00;;;;;;5092451;28;20032;-67
2021/06/04 02:20:31;;;;;;;44.80;32.25;;;16.90;95.00;;;;;;5088993;28;20123;-67
2021/06/04 02:23:14;;;;;;;40.30;32.22;;;16.90;95.00;;;;;;5092440;28;20032;-67
2021/06/04 02:26:01;;;;;;;41.63;32.45;;;16.90;95.00;;;;;;5088867;28;20019;-67
2021/06/04 02:28:54;;;;;;;48.13;35.53;;;16.80;95.00;;;;;;5089503;28;20041;-67
2021/06/04 02:31:36;;;;;;;42.70;33.08;;;16.80;95.00;;;;;;5087894;28;20020;-67
2021/06/04 02:34:34;;;;;;;38.08;29.40;;;16.70;95.00;;;;;;5085991;28;20024;-67
2021/06/04 02:37:23;;;;;;;46.25;33.92;;;16.70;95.10;;;;;;5078492;28;20119;-67
2021/06/04 02:40:04;;;;;;;44.65;32.70;;;16.60;95.20;;;;;;5077155;28;20620;-67
2021/06/04 02:42:37;;;;;;;46.47;33.15;;;16.60;95.30;;;;;;5089398;28;20432;-67
2021/06/04 02:45:26;;;;;;;44.85;34.63;;;16.60;95.30;;;;;;5090756;28;20040;-67
2021/06/04 02:47:55;;;;;;;45.78;34.40;;;16.60;95.20;;;;;;5092809;28;20423;-67
2021/06/04 02:50:32;;;;;;;49.33;35.08;;;16.50;95.30;;;;;;5073920;28;20523;-67
2021/06/04 02:53:16;;;;;;;43.65;31.65;;;16.50;95.30;;;;;;5092329;28;20052;-67
2021/06/04 02:56:03;;;;;;;38.80;29.42;;;16.50;95.30;;;;;;5084400;28;20428;-67
2021/06/04 02:58:28;;;;;;;42.25;32.33;;;16.50;95.40;;;;;;5088623;28;20032;-67
2021/06/04 03:00:54;;;;;;;43.67;32.30;;;16.40;95.40;;;;;;5091237;28;20028;-67
2021/06/04 03:03:20;;;;;;;44.40;33.33;;;16.30;95.50;;;;;;5091090;28;20078;-67
2021/06/04 03:05:45;;;;;;;45.85;34.35;;;16.40;95.50;;;;;;5083908;28;20032;-67
2021/06/04 03:08:11;;;;;;;49.00;34.70;;;16.30;95.50;;;;;;5082793;28;20034;-67
2021/06/04 03:10:41;;;;;;;48.42;35.40;;;16.30;95.60;;;;;;5094937;28;20543;-67
2021/06/04 03:13:10;;;;;;;43.40;32.65;;;16.20;95.60;;;;;;5072606;28;20062;-67
2021/06/04 03:15:40;;;;;;;52.40;36.08;;;16.20;95.70;;;;;;5082810;28;20067;-67
2021/06/04 03:18:09;;;;;;;45.13;34.97;;;16.20;95.70;;;;;;5083947;28;20051;-67
2021/06/04 03:20:38;;;;;;;51.70;36.58;;;16.20;95.80;;;;;;5085265;28;20056;-67
2021/06/04 03:23:06;;;;;;;47.28;34.10;;;16.20;95.80;;;;;;5090638;28;20024;-67
2021/06/04 03:25:37;;;;;;;44.90;34.08;;;16.10;95.80;;;;;;5085084;28;20370;-67
2021/06/04 03:28:05;;;;;;;51.97;37.83;;;16.10;95.80;;;;;;5071555;28;20062;-67
2021/06/04 03:30:33;;;;;;;55.38;39.85;;;16.10;95.80;;;;;;5091250;28;20036;-67
2021/06/04 03:32:59;;;;;;;54.95;39.50;;;16.10;95.80;;;;;;5092046;28;20028;-67
2021/06/04 03:35:25;;;;;;;56.17;39.38;;;16.00;95.90;;;;;;5092145;28;20042;-67
2021/06/04 03:37:51;;;;;;;41.88;29.23;;;16.00;95.90;;;;;;5082961;28;20036;-67
2021/06/04 03:40:20;;;;;;;49.92;34.80;;;16.00;95.90;;;;;;5084481;28;20032;-67
2021/06/04 03:42:46;;;;;;;49.70;35.45;;;15.90;96.00;;;;;;5068911;28;20038;-67
2021/06/04 03:45:16;;;;;;;50.17;37.65;;;15.90;96.00;;;;;;5082761;28;20104;-67
2021/06/04 03:47:41;;;;;;;52.17;35.17;;;15.90;96.10;;;;;;5087343;28;20032;-66
2021/06/04 03:50:09;;;;;;;52.88;37.28;;;15.90;96.10;;;;;;5063286;28;20040;-67
2021/06/04 03:52:35;;;;;;;47.80;34.25;;;15.80;96.10;;;;;;5087676;28;20122;-67
2021/06/04 03:55:00;;;;;;;51.10;35.85;;;15.80;96.10;;;;;;5089804;28;20286;-67
2021/06/04 03:57:29;;;;;;;53.65;36.67;;;15.80;96.20;;;;;;5082215;28;20081;-67
2021/06/04 03:59:55;;;;;;;54.65;38.35;;;15.80;96.30;;;;;;5091443;28;20031;-67
2021/06/04 04:02:24;;;;;;;44.85;33.92;;;15.80;96.30;;;;;;5088807;28;20046;-67
2021/06/04 04:04:55;;;;;;;49.35;32.83;;;15.80;96.30;;;;;;5091549;28;20020;-67
2021/06/04 04:07:21;;;;;;;51.15;37.58;;;15.80;96.20;;;;;;5088669;28;20086;-67
2021/06/04 04:09:47;;;;;;;50.78;35.85;;;15.70;96.30;;;;;;5081487;28;20024;-67
2021/06/04 04:12:12;;;;;;;52.95;37.88;;;15.80;96.30;;;;;;5088632;28;20024;-67
2021/06/04 04:14:38;;;;;;;52.70;37.55;;;15.80;96.40;;;;;;5093006;28;20048;-67
2021/06/04 04:17:04;;;;;;;46.83;33.20;;;15.80;96.40;;;;;;5089853;28;20097;-67
2021/06/04 04:19:30;;;;;;;53.85;37.85;;;15.80;96.40;;;;;;5085431;28;20020;-67
2021/06/04 04:21:56;;;;;;;38.30;28.92;;;15.80;96.40;;;;;;5092136;28;20035;-67
2021/06/04 04:24:29;;;;;;;34.70;27.95;;;15.80;96.30;;;;;;5087951;28;20109;-67
2021/06/04 04:26:55;;;;;;;40.25;28.48;;;15.80;96.20;;;;;;5090232;28;20106;-67
2021/06/04 04:29:21;;;;;;;43.97;33.45;;;15.80;96.20;;;;;;5093349;28;20059;-67
2021/06/04 04:31:52;;;;;;;49.17;34.92;;;15.80;96.30;;;;;;5085581;28;20355;-68
2021/06/04 04:34:18;;;;;;;44.85;33.47;;;15.80;96.30;;;;;;5080625;28;20565;-68
2021/06/04 04:36:48;;;;;;;55.13;38.00;;;15.80;96.30;;;;;;5084986;28;20036;-68
2021/06/04 04:39:22;;;;;;;58.58;39.25;;;15.90;96.30;;;;;;5082459;28;20035;-68
2021/06/04 04:41:48;;;;;;;48.80;35.00;;;15.90;96.40;;;;;;5084790;28;20024;-68
2021/06/04 04:44:16;;;;;;;40.70;31.08;;;16.00;96.50;;;;;;5079691;28;20039;-68
2021/06/04 04:46:41;;;;;;;38.83;30.75;;;16.00;96.40;;;;;;5086843;28;20094;-66
2021/06/04 04:49:07;;;;;;;47.00;34.47;;;16.10;96.40;;;;;;5087621;28;20036;-68
2021/06/04 04:51:34;;;;;;;39.92;32.10;;;16.20;96.40;;;;;;5090617;28;20028;-68
2021/06/04 04:53:59;;;;;;;40.20;32.47;;;16.30;96.60;;;;;;5088619;28;20024;-68
2021/06/04 04:56:25;;;;;;;39.88;32.38;;;16.60;96.80;;;;;;5089464;28;20100;-66
2021/06/04 04:58:51;;;;;;;42.95;31.25;;;16.80;96.50;;;;;;5084425;28;20020;-66
2021/06/04 05:01:17;;;;;;;44.60;34.30;;;16.90;96.30;;;;;;5080116;28;20036;-66
2021/06/04 05:03:43;;;;;;;44.80;34.80;;;17.10;96.10;;;;;;5092034;28;20485;-66
2021/06/04 05:06:10;;;;;;;41.83;33.60;;;17.20;96.00;;;;;;5086288;28;20024;-66
2021/06/04 05:08:36;;;;;;;41.13;31.27;;;17.40;96.20;;;;;;5087103;28;20024;-67
2021/06/04 05:11:03;;;;;;;33.95;28.77;;;17.70;96.30;;;;;;5088815;28;20032;-66
2021/06/04 05:13:29;;;;;;;33.03;28.50;;;18.20;96.10;;;;;;5079687;28;20035;-66
2021/06/04 05:15:55;;;;;;;35.33;28.85;;;18.50;95.50;;;;;;5088436;28;20042;-66
2021/06/04 05:18:21;;;;;;;42.50;31.08;;;18.70;95.00;;;;;;5087187;28;20033;-66
2021/06/04 05:20:48;;;;;;;37.22;29.83;;;18.80;94.40;;;;;;5087126;28;20062;-66
2021/06/04 05:23:16;;;;;;;34.80;29.25;;;18.80;94.10;;;;;;5068053;28;20035;-67
2021/06/04 05:25:46;;;;;;;38.03;31.42;;;18.70;93.80;;;;;;5086158;28;20040;-67
2021/06/04 05:28:19;;;;;;;41.15;31.58;;;18.60;93.60;;;;;;5075681;28;20024;-67
2021/06/04 05:30:46;;;;;;;34.65;28.92;;;18.50;93.60;;;;;;5082496;28;20039;-67
2021/06/04 05:33:15;;;;;;;42.53;32.95;;;18.50;93.80;;;;;;5079595;28;20486;-68
2021/06/04 05:35:42;;;;;;;37.35;29.80;;;18.70;93.70;;;;;;5089320;28;20036;-67
2021/06/04 05:38:08;;;;;;;31.55;27.23;;;18.90;93.60;;;;;;5084815;28;20032;-67
2021/06/04 05:40:41;;;;;;;30.70;25.98;;;19.20;93.50;;;;;;5088179;28;20043;-68
2021/06/04 05:43:09;;;;;;;;;;;19.50;93.40;;;;;;5088037;28;20021;-67
2021/06/04 05:45:37;;;;;;;39.13;28.42;;;19.80;93.40;;;;;;5090412;28;20281;-67
2021/06/04 05:48:04;;;;;;;39.08;31.13;;;20.00;92.50;;;;;;5071669;28;20166;-67
2021/06/04 05:50:36;;;;;;;35.65;27.05;;;20.20;92.00;;;;;;5071620;28;20093;-67
2021/06/04 05:53:04;;;;;;;36.78;26.83;;;20.30;91.20;;;;;;5087504;28;20068;-67
2021/06/04 05:55:31;;;;;;;33.80;26.40;;;20.50;90.70;;;;;;5085651;28;20028;-67
2021/06/04 05:57:57;;;;;;;33.03;25.52;;;20.70;89.90;;;;;;5071881;28;20431;-66
2021/06/04 06:00:27;;;;;;;33.40;26.83;;;20.90;89.30;;;;;;5083879;28;20060;-67
2021/06/04 06:02:55;;;;;;;33.38;24.88;;;21.10;88.50;;;;;;5079152;28;20053;-66
2021/06/04 06:05:20;;;;;;;31.60;24.27;;;21.20;87.60;;;;;;5088041;28;20501;-66
2021/06/04 06:07:46;;;;;;;36.53;24.17;;;21.50;86.80;;;;;;5089812;28;20110;-68
2021/06/04 06:10:12;;;;;;;31.02;23.45;;;21.60;85.60;;;;;;5090088;28;20039;-68
2021/06/04 06:12:37;;;;;;;33.72;23.85;;;21.80;84.10;;;;;;5087973;28;20146;-68
2021/06/04 06:15:05;;;;;;;36.40;26.35;;;21.90;83.30;;;;;;5084801;28;20061;-68
2021/06/04 06:17:30;;;;;;;33.42;25.02;;;22.00;82.30;;;;;;5085099;28;20043;-67
2021/06/04 06:19:56;;;;;;;33.00;25.10;;;22.00;82.50;;;;;;5089783;28;20396;-68
2021/06/04 06:22:22;;;;;;;31.67;25.25;;;22.00;81.70;;;;;;5089657;28;20024;-68
2021/06/04 06:24:47;;;;;;;32.08;24.30;;;21.90;81.10;;;;;;5092406;28;20038;-68
2021/06/04 06:27:13;;;;;;;35.63;25.15;;;21.90;81.50;;;;;;5085766;28;20042;-67
2021/06/04 06:29:39;;;;;;;28.02;24.58;;;22.00;81.30;;;;;;5088493;28;20067;-68
2021/06/04 06:32:07;;;;;;;30.77;24.88;;;22.00;80.90;;;;;;5084055;28;20025;-68
2021/06/04 06:34:33;;;;;;;30.13;23.13;;;22.00;80.60;;;;;;5090593;28;20510;-67
2021/06/04 06:37:00;;;;;;;30.65;24.60;;;22.10;80.30;;;;;;5090305;28;20024;-67
2021/06/04 06:39:32;;;;;;;33.92;24.85;;;22.20;80.40;;;;;;5089622;28;20024;-68
2021/06/04 06:41:59;;;;;;;32.33;24.92;;;22.40;80.30;;;;;;5088790;28;20040;-68
2021/06/04 06:44:25;;;;;;;32.60;26.10;;;22.50;79.10;;;;;;5069855;28;20114;-67
2021/06/04 06:46:52;;;;;;;34.65;26.05;;;22.40;78.80;;;;;;5084823;28;20120;-68
2021/06/04 06:49:19;;;;;;;27.65;21.02;;;22.40;79.70;;;;;;5086757;28;20036;-68
2021/06/04 06:51:44;;;;;;;26.08;18.30;;;22.50;79.10;;;;;;5090783;28;20044;-68
2021/06/04 06:54:15;;;;;;;26.15;19.77;;;22.50;79.00;;;;;;5090628;28;20127;-68
2021/06/04 06:56:42;;;;;;;23.70;19.27;;;22.50;77.30;;;;;;5083592;28;20032;-68
2021/06/04 06:59:08;;;;;;;26.65;19.67;;;22.50;76.40;;;;;;5090930;28;20032;-68
2021/06/04 07:01:33;;;;;;;27.50;19.45;;;22.50;76.20;;;;;;5085685;28;20032;-68
2021/06/04 07:04:00;;;;;;;27.65;21.75;;;22.50;76.50;;;;;;5086495;28;20035;-67
2021/06/04 07:06:29;;;;;;;26.40;20.38;;;22.60;75.70;;;;;;5091056;28;20063;-68
2021/06/04 07:08:56;;;;;;;23.83;18.67;;;22.60;76.00;;;;;;5084399;28;20405;-68
2021/06/04 07:11:23;;;;;;;26.42;21.55;;;22.70;76.00;;;;;;5094559;28;20110;-68
2021/06/04 07:13:51;;;;;;;24.90;19.08;;;22.70;75.60;;;;;;5091498;28;21742;-68
2021/06/04 07:16:18;;;;;;;26.15;19.88;;;22.80;75.20;;;;;;5091694;28;20032;-68
2021/06/04 07:18:44;;;;;;;28.98;19.23;;;22.90;74.90;;;;;;5090816;28;20038;-68
2021/06/04 07:21:12;;;;;;;17.83;15.13;;;23.10;75.00;;;;;;5088920;28;20032;-68
2021/06/04 07:23:38;;;;;;;21.45;17.73;;;23.30;73.70;;;;;;5091537;28;20059;-68
2021/06/04 07:26:05;;;;;;;25.27;19.27;;;23.30;72.90;;;;;;5092807;28;20052;-67
2021/06/04 07:28:32;;;;;;;25.88;19.45;;;23.40;72.60;;;;;;5084763;28;20086;-68
2021/06/04 07:31:03;;;;;;;27.83;22.88;;;23.50;72.70;;;;;;5093324;28;20036;-68
2021/06/04 07:33:32;;;;;;;29.05;22.38;;;23.50;72.70;;;;;;5088300;28;20062;-68
2021/06/04 07:36:00;;;;;;;28.20;21.35;;;23.50;73.20;;;;;;5087575;28;20436;-68
2021/06/04 07:38:25;;;;;;;26.08;20.50;;;23.60;73.50;;;;;;5087812;28;20032;-68
2021/06/04 07:40:52;;;;;;;23.02;19.98;;;23.60;73.40;;;;;;5092011;28;20032;-68
2021/06/04 07:43:22;;;;;;;24.23;19.10;;;23.60;73.10;;;;;;5079179;28;20054;-68
2021/06/04 07:45:48;;;;;;;25.08;19.27;;;23.70;73.10;;;;;;5087309;28;20094;-68
2021/06/04 07:48:18;;;;;;;28.27;19.55;;;23.80;73.30;;;;;;5090832;28;20478;-69
2021/06/04 07:50:44;;;;;;;24.02;18.85;;;23.80;72.60;;;;;;5086471;28;20482;-66
2021/06/04 07:53:13;;;;;;;26.20;19.70;;;23.90;71.90;;;;;;5090494;28;20436;-68
2021/06/04 07:55:40;;;;;;;24.10;18.58;;;23.90;70.60;;;;;;5088455;28;20076;-68
2021/06/04 07:58:05;;;;;;;19.70;17.65;;;24.10;70.10;;;;;;5087749;28;20081;-68
2021/06/04 08:00:33;;;;;;;21.30;16.42;;;24.20;69.80;;;;;;5092214;28;20031;-68
2021/06/04 08:03:04;;;;;;;18.92;15.65;;;24.30;69.30;;;;;;5088950;28;20526;-68
2021/06/04 08:05:31;;;;;;;20.25;15.98;;;24.50;69.30;;;;;;5088374;28;20031;-68
2021/06/04 08:07:57;;;;;;;24.70;17.17;;;24.60;69.80;;;;;;5084955;28;20519;-68
2021/06/04 08:10:24;;;;;;;21.25;16.77;;;24.70;68.10;;;;;;5089959;28;20478;-68
2021/06/04 08:12:52;;;;;;;18.15;14.57;;;24.60;67.80;;;;;;5091075;28;20496;-68
2021/06/04 08:15:30;;;;;;;17.35;14.85;;;24.70;68.10;;;;;;5090881;28;20237;-68
2021/06/04 08:17:56;;;;;;;16.90;13.57;;;24.80;67.20;;;;;;5089107;28;20028;-66
2021/06/04 08:20:28;;;;;;;15.27;12.95;;;24.90;67.70;;;;;;5080315;28;20032;-69
2021/06/04 08:22:58;;;;;;;16.98;12.07;;;25.00;67.00;;;;;;5083747;28;20027;-68
2021/06/04 08:25:30;;;;;;;16.45;11.68;;;25.20;65.90;;;;;;5090884;28;20363;-66
2021/06/04 08:27:56;;;;;;;;;;;25.20;65.30;;;;;;5070098;28;20120;-66
2021/06/04 08:30:23;;;;;;;14.85;11.82;;;25.30;66.40;;;;;;5090255;28;19958;-66
2021/06/04 08:32:49;;;;;;;19.65;14.18;;;25.50;65.60;;;;;;5090877;28;20032;-66
2021/06/04 08:35:15;;;;;;;17.58;13.43;;;25.50;65.50;;;;;;5061492;28;20038;-68
2021/06/04 08:37:41;;;;;;;14.73;12.38;;;25.60;65.70;;;;;;5085221;28;20073;-66
2021/06/04 08:40:12;;;;;;;11.73;9.73;;;25.60;65.10;;;;;;5088231;28;20035;-66
2021/06/04 08:43:00;;;;;;;13.93;10.13;;;25.60;64.50;;;;;;5089506;28;20103;-66
2021/06/04 08:45:32;;;;;;;13.10;9.68;;;25.50;64.80;;;;;;5091443;28;20024;-68
2021/06/04 08:48:12;;;;;;;12.48;9.30;;;25.40;64.80;;;;;;5088217;28;20020;-66
2021/06/04 08:51:14;;;;;;;12.18;9.32;;;25.30;64.30;;;;;;5089074;28;20042;-66
2021/06/04 08:54:01;;;;;;;11.85;9.70;;;25.30;64.60;;;;;;5089317;28;20525;-68
2021/06/04 08:56:40;;;;;;;11.20;9.73;;;25.20;64.70;;;;;;5089617;28;20028;-66
2021/06/04 08:59:10;;;;;;;13.80;8.68;;;25.10;64.70;;;;;;5084335;28;20028;-66
2021/06/04 09:01:44;;;;;;;13.45;9.77;;;25.00;65.20;;;;;;5089157;28;20107;-66
2021/06/04 09:04:17;;;;;;;10.75;9.15;;;24.90;64.20;;;;;;5087599;28;20535;-68
2021/06/04 09:06:50;;;;;;;9.60;8.38;;;24.80;64.40;;;;;;5093365;28;20110;-68
2021/06/04 09:09:31;;;;;;;11.15;8.95;;;24.70;64.10;;;;;;5091992;28;20385;-66
2021/06/04 09:12:02;;;;;;;14.18;10.07;;;24.70;64.40;;;;;;5082611;28;20093;-68
2021/06/04 09:14:28;;;;;;;14.85;11.02;;;24.90;64.60;;;;;;5092291;28;20095;-66
2021/06/04 09:17:12;;;;;;;14.48;10.73;;;25.10;64.10;;;;;;5087424;28;20078;-66
2021/06/04 09:19:59;;;;;;;15.00;13.10;;;25.20;63.40;;;;;;5068077;28;20035;-68
2021/06/04 09:22:29;;;;;;;16.40;13.85;;;25.10;63.60;;;;;;5074382;28;20028;-68
2021/06/04 09:24:56;;;;;;;15.52;12.85;;;24.90;63.20;;;;;;5085375;28;20036;-68
2021/06/04 09:27:25;;;;;;;15.93;11.63;;;24.90;63.80;;;;;;5087987;28;20764;-68
2021/06/04 09:30:16;;;;;;;18.38;11.57;;;25.00;64.50;;;;;;5085865;28;20370;-68
2021/06/04 09:32:58;;;;;;;13.98;10.82;;;25.20;65.60;;;;;;5085701;28;20486;-68
2021/06/04 09:35:24;;;;;;;14.32;11.32;;;25.30;63.80;;;;;;5079961;28;20028;-68
2021/06/04 09:37:50;;;;;;;15.73;11.98;;;25.40;64.00;;;;;;5084898;28;20020;-68
2021/06/04 09:40:30;;;;;;;17.23;12.68;;;25.50;64.80;;;;;;5088639;28;20111;-68
2021/06/04 09:43:06;;;;;;;14.65;10.73;;;25.90;64.50;;;;;;5090324;28;20012;-68
2021/06/04 09:45:37;;;;;;;15.57;12.10;;;26.10;63.60;;;;;;5091934;28;20054;-67
2021/06/04 09:48:13;;;;;;;17.30;12.75;;;26.10;61.70;;;;;;5085646;28;20039;-67
2021/06/04 09:50:46;;;;;;;15.45;12.23;;;25.90;62.00;;;;;;5091859;28;20040;-67
2021/06/04 09:53:22;;;;;;;15.43;11.07;;;25.90;60.80;;;;;;5092736;28;20443;-67
2021/06/04 09:56:10;;;;;;;16.63;12.18;;;25.90;61.30;;;;;;5091477;28;20062;-67
2021/06/04 09:58:59;;;;;;;14.82;11.45;;;26.20;60.70;;;;;;5087948;28;20044;-68
2021/06/04 10:01:29;;;;;;;14.77;10.85;;;26.10;59.90;;;;;;5091210;28;20081;-68
2021/06/04 10:04:11;;;;;;;11.90;10.57;;;25.90;59.10;;;;;;5090172;28;20104;-68
2021/06/04 10:06:46;;;;;;;14.43;10.35;;;26.00;60.50;;;;;;5088215;28;20019;-68
2021/06/04 10:09:32;;;;;;;12.38;9.38;;;26.10;60.00;;;;;;5081261;28;20411;-67
2021/06/04 10:12:02;;;;;;;11.85;8.98;;;26.30;60.00;;;;;;5077598;28;20050;-67
2021/06/04 10:14:49;;;;;;;15.65;10.68;;;26.40;60.00;;;;;;5087747;28;20080;-67
2021/06/04 10:17:48;;;;;;;15.13;10.68;;;26.40;59.80;;;;;;5095582;28;20107;-68
2021/06/04 10:20:32;;;;;;;13.98;10.65;;;26.50;60.90;;;;;;5086146;28;20032;-68
2021/06/04 10:23:07;;;;;;;15.88;10.35;;;26.60;60.90;;;;;;5086423;28;20032;-67
2021/06/04 10:25:57;;;;;;;25.00;9.80;;;26.60;58.90;;;;;;5086684;28;20050;-68
2021/06/04 10:28:28;;;;;;;12.30;9.00;;;26.60;59.90;;;;;;5072931;28;20032;-68
2021/06/04 10:31:00;;;;;;;14.95;9.98;;;26.70;59.80;;;;;;5085145;28;20032;-68
2021/06/04 10:33:38;;;;;;;17.70;12.60;;;26.90;59.90;;;;;;5089530;28;20040;-68
2021/06/04 10:36:08;;;;;;;13.45;10.93;;;26.80;59.30;;;;;;5084061;28;20027;-68
2021/06/04 10:38:41;;;;;;;13.75;10.75;;;26.80;59.60;;;;;;5090471;28;20426;-68
2021/06/04 10:41:11;;;;;;;12.45;10.32;;;26.90;59.40;;;;;;5086953;28;20036;-68
2021/06/04 10:43:50;;;;;;;16.42;10.15;;;27.00;60.00;;;;;;5089567;28;20032;-67
2021/06/04 10:46:56;;;;;;;12.57;10.07;;;27.20;59.40;;;;;;5094383;28;20020;-67
2021/06/04 10:49:44;;;;;;;14.25;10.40;;;27.40;59.30;;;;;;5088254;28;20099;-67
2021/06/04 10:52:31;;;;;;;14.15;11.52;;;27.70;57.90;;;;;;5088250;28;20504;-67
2021/06/04 10:55:21;;;;;;;13.77;11.00;;;27.70;58.00;;;;;;5074319;28;20483;-67
2021/06/04 10:57:56;;;;;;;13.40;9.85;;;27.50;57.90;;;;;;5092881;28;20363;-67
2021/06/04 11:00:35;;;;;;;15.00;12.93;;;27.40;58.30;;;;;;5086561;28;20024;-67
2021/06/04 11:03:12;;;;;;;15.35;10.95;;;27.40;57.50;;;;;;5097450;28;20532;-67
2021/06/04 11:05:56;;;;;;;12.82;9.85;;;27.20;57.70;;;;;;5088304;28;20040;-68
2021/06/04 11:08:45;;;;;;;12.45;9.35;;;27.10;57.00;;;;;;5091090;28;20016;-67
2021/06/04 11:11:46;;;;;;;11.50;9.65;;;27.00;57.80;;;;;;5082043;28;20028;-67
2021/06/04 11:14:35;;;;;;;11.27;9.95;;;27.10;58.50;;;;;;5092352;28;20028;-67
2021/06/04 11:17:17;;;;;;;12.18;8.68;;;27.00;57.00;;;;;;5085593;28;20047;-67
2021/06/04 11:19:49;;;;;;;10.23;8.25;;;27.00;58.60;;;;;;5092114;28;20115;-67
2021/06/04 11:22:21;;;;;;;9.45;6.97;;;27.20;57.50;;;;;;5069266;28;20477;-67
2021/06/04 11:25:01;;;;;;;9.70;6.97;;;27.10;57.70;;;;;;5085932;28;20043;-67
2021/06/04 11:27:34;;;;;;;10.63;7.55;;;27.20;56.90;;;;;;5082606;28;20547;-67
2021/06/04 11:30:01;;;;;;;9.38;7.45;;;27.10;56.30;;;;;;5083735;28;20024;-69
2021/06/04 11:32:42;;;;;;;11.10;8.00;;;27.00;57.00;;;;;;5074103;28;20031;-68
2021/06/04 11:35:22;;;;;;;6.57;5.88;;;27.10;57.20;;;;;;5070003;28;20024;-67
2021/06/04 11:37:55;;;;;;;11.27;5.43;;;27.30;57.50;;;;;;5084032;28;20059;-67
2021/06/04 11:40:29;;;;;;;8.25;6.82;;;27.50;57.30;;;;;;5087116;28;20063;-68
2021/06/04 11:43:09;;;;;;;9.95;5.28;;;27.70;55.80;;;;;;5089992;28;20069;-67
2021/06/04 11:45:36;;;;;;;6.60;4.43;;;27.80;55.30;;;;;;5069059;28;20020;-67
2021/06/04 11:48:20;;;;;;;6.80;3.92;;;27.80;54.90;;;;;;5086205;28;20045;-68
2021/06/04 11:50:47;;;;;;;8.73;5.05;;;27.90;55.10;;;;;;5083729;28;20374;-68
2021/06/04 11:53:28;;;;;;;6.53;5.22;;;28.00;55.00;;;;;;5080524;28;20063;-67
2021/06/04 11:55:55;;;;;;;6.95;5.53;;;27.80;53.90;;;;;;5090055;28;20024;-67
2021/06/04 11:58:32;;;;;;;7.10;5.50;;;27.50;53.70;;;;;;5086201;28;20031;-68
2021/06/04 12:01:12;;;;;;;6.63;4.78;;;27.40;54.40;;;;;;5086100;28;20051;-68
2021/06/04 12:03:43;;;;;;;5.72;4.45;;;27.40;54.50;;;;;;5082191;28;20032;-68
2021/06/04 12:06:25;;;;;;;7.63;5.67;;;27.40;54.30;;;;;;5086227;28;20555;-68
2021/06/04 12:08:52;;;;;;;7.45;5.57;;;27.30;55.10;;;;;;5085827;28;20343;-68
2021/06/04 12:11:17;;;;;;;10.02;6.38;;;27.30;55.30;;;;;;5083684;28;20319;-68
2021/06/04 12:13:49;;;;;;;10.20;7.20;;;27.40;56.80;;;;;;5086964;28;20465;-67
2021/06/04 12:16:25;;;;;;;12.02;8.80;;;27.50;55.80;;;;;;5083131;28;20028;-67
2021/06/04 12:19:27;;;;;;;12.05;7.05;;;27.50;55.80;;;;;;5090397;28;20050;-68
2021/06/04 12:22:20;;;;;;;8.70;7.00;;;27.70;56.80;;;;;;5078724;28;20032;-68
2021/06/04 12:24:46;;;;;;;7.63;5.47;;;27.90;57.10;;;;;;5083891;28;20497;-68
2021/06/04 12:27:11;;;;;;;6.85;5.68;;;27.80;55.80;;;;;;5081210;28;20020;-68
2021/06/04 12:29:51;;;;;;;6.65;5.18;;;27.60;55.70;;;;;;5081091;28;20081;-68
2021/06/04 12:32:36;;;;;;;7.43;5.18;;;27.40;56.90;;;;;;5080369;28;20036;-68
2021/06/04 12:35:05;;;;;;;8.80;6.32;;;27.60;58.00;;;;;;5078850;28;20490;-67
2021/06/04 12:37:39;;;;;;;6.75;5.28;;;27.70;56.50;;;;;;5079649;28;20031;-68
2021/06/04 12:40:08;;;;;;;8.45;6.28;;;27.80;56.10;;;;;;5068538;28;20070;-67
2021/06/04 12:42:55;;;;;;;7.88;5.70;;;27.70;55.90;;;;;;5089177;28;20111;-67
2021/06/04 12:45:34;;;;;;;8.50;6.45;;;27.80;57.10;;;;;;5090379;28;20040;-67
2021/06/04 12:48:19;;;;;;;8.63;5.60;;;27.80;55.60;;;;;;5090605;28;20024;-67
2021/06/04 12:50:47;;;;;;;9.10;6.00;;;27.90;55.60;;;;;;5081715;28;20038;-67
2021/06/04 12:53:48;;;;;;;8.63;6.72;;;28.00;55.30;;;;;;5091045;28;20501;-67
2021/06/04 12:56:18;;;;;;;10.25;5.85;;;28.30;55.40;;;;;;5079015;28;20493;-67